Time;durP1;ratioP1;P1;durP2;ratioP2;P2;SDS_P1;SDS_P2;PMS_P1;PMS_P2;Temp;Humidity;BMP_temperature;BMP_pressure;BME280_temperature;BME280_humidity;BME280_pressure;Samples;Min_cycle;Max_cycle;Signal;HPM_P1;HPM_P2
2021/03/19 00:01:31;;;;;;;7.57;3.00;;;22.50;65.30;;;;;;6182163;23;20012;-68
2021/03/19 00:03:57;;;;;;;10.07;3.33;;;22.50;65.20;;;;;;6183214;23;20424;-68
2021/03/19 00:06:24;;;;;;;6.18;4.03;;;22.50;65.00;;;;;;6182283;23;20007;-69
2021/03/19 02:30:52;;;;;;;4.55;2.17;;;21.70;75.70;;;;;;5068417;28;20465;-70
2021/03/19 02:33:19;;;;;;;4.72;2.17;;;21.80;76.30;;;;;;5068562;28;20021;-70
2021/03/19 02:35:57;;;;;;;4.47;1.52;;;21.80;76.10;;;;;;5065552;28;20028;-69
2021/03/19 02:38:24;;;;;;;3.15;1.88;;;21.90;75.90;;;;;;5069456;28;20379;-69
2021/03/19 02:40:51;;;;;;;5.05;1.92;;;21.90;75.60;;;;;;5069878;28;20498;-69
2021/03/19 02:43:20;;;;;;;4.40;2.15;;;21.90;75.50;;;;;;5071212;28;20020;-70
2021/03/19 02:45:47;;;;;;;5.07;2.53;;;21.90;75.40;;;;;;5070541;28;20021;-70
2021/03/19 02:48:15;;;;;;;5.97;3.05;;;21.90;75.40;;;;;;5068123;28;20009;-70
2021/03/19 02:51:21;;;;;;;8.75;3.38;;;21.90;75.40;;;;;;5066851;28;20090;-70
2021/03/19 02:54:27;;;;;;;6.43;2.95;;;21.90;75.30;;;;;;5065866;28;20020;-71
2021/03/19 02:57:33;;;;;;;6.13;2.63;;;21.90;75.30;;;;;;5065877;28;20095;-70
2021/03/19 03:00:00;;;;;;;9.52;3.08;;;21.90;75.20;;;;;;5069628;28;20423;-71
2021/03/19 03:02:26;;;;;;;9.27;1.92;;;21.90;75.20;;;;;;5068320;28;20032;-70
2021/03/19 03:04:53;;;;;;;4.55;2.30;;;22.00;75.20;;;;;;5069836;28;20379;-70
2021/03/19 03:07:31;;;;;;;9.18;2.35;;;22.00;75.10;;;;;;5061065;28;20093;-69
2021/03/19 03:09:58;;;;;;;7.43;1.65;;;21.90;74.90;;;;;;5068408;28;20016;-69
2021/03/19 03:12:25;;;;;;;5.35;1.48;;;22.00;74.70;;;;;;5069161;28;20027;-69
2021/03/19 03:14:52;;;;;;;8.68;2.20;;;21.90;74.50;;;;;;5070296;28;20036;-69
2021/03/19 03:17:19;;;;;;;6.57;2.30;;;21.90;74.30;;;;;;5068000;28;20028;-69
2021/03/19 03:19:45;;;;;;;8.30;1.80;;;21.90;73.90;;;;;;5067121;28;20487;-69
2021/03/19 03:22:12;;;;;;;6.97;2.00;;;21.90;73.70;;;;;;5070740;28;20017;-70
2021/03/19 03:24:39;;;;;;;9.98;3.13;;;21.90;73.30;;;;;;5071747;28;20048;-70
2021/03/19 03:27:08;;;;;;;9.25;2.30;;;21.80;73.00;;;;;;5067435;28;20016;-70
2021/03/19 03:29:36;;;;;;;9.00;2.95;;;21.80;72.70;;;;;;5062159;28;20036;-70
2021/03/19 03:32:03;;;;;;;12.43;2.53;;;21.80;72.50;;;;;;5054340;28;20108;-70
2021/03/19 03:34:31;;;;;;;9.50;2.58;;;21.80;72.40;;;;;;5058027;28;20025;-70
2021/03/19 03:36:59;;;;;;;6.43;2.42;;;21.80;72.30;;;;;;5056364;28;20021;-70
2021/03/19 03:39:29;;;;;;;13.88;3.90;;;21.70;72.20;;;;;;5054770;28;20060;-70
2021/03/19 03:41:58;;;;;;;10.88;3.15;;;21.70;72.60;;;;;;5054845;28;20017;-70
2021/03/19 03:44:25;;;;;;;8.25;2.08;;;21.70;71.60;;;;;;5050611;28;20059;-70
2021/03/19 03:47:31;;;;;;;7.82;2.20;;;21.70;71.40;;;;;;5055867;28;20021;-70
2021/03/19 03:50:37;;;;;;;8.82;2.00;;;21.70;70.90;;;;;;5055980;28;20032;-70
2021/03/19 03:53:43;;;;;;;11.77;2.33;;;21.70;70.50;;;;;;5053648;28;20052;-70
2021/03/19 03:56:49;;;;;;;7.10;1.95;;;21.60;70.00;;;;;;5054220;28;20041;-70
2021/03/19 03:59:55;;;;;;;7.43;2.25;;;21.60;69.70;;;;;;5051454;28;20036;-70
2021/03/19 04:03:01;;;;;;;9.60;2.60;;;21.60;69.20;;;;;;5040710;28;20491;-70
2021/03/19 04:05:32;;;;;;;7.65;1.83;;;21.60;68.70;;;;;;5056433;28;20056;-71
2021/03/19 04:07:59;;;;;;;20.13;2.88;;;21.60;68.60;;;;;;5053923;28;20033;-70
2021/03/19 04:10:26;;;;;;;5.90;1.50;;;21.50;68.50;;;;;;5052600;28;20044;-69
2021/03/19 04:12:53;;;;;;;11.27;2.47;;;21.50;68.30;;;;;;5056653;28;20165;-69
2021/03/19 04:15:21;;;;;;;13.52;2.13;;;21.50;68.20;;;;;;5052322;28;21109;-71
2021/03/19 04:17:48;;;;;;;11.75;3.08;;;21.50;67.90;;;;;;5053377;28;20538;-70
2021/03/19 04:20:17;;;;;;;4.85;1.80;;;21.40;67.80;;;;;;5072821;22;20045;-79
2021/03/19 04:22:44;;;;;;;5.90;2.70;;;21.40;67.80;;;;;;5054790;28;20020;-76
2021/03/19 04:25:12;;;;;;;11.15;4.25;;;21.40;67.80;;;;;;5054128;28;20017;-72
2021/03/19 04:27:51;;;;;;;10.88;3.25;;;21.40;67.60;;;;;;5057740;28;20099;-87
2021/03/19 04:30:24;;;;;;;6.32;2.60;;;21.40;67.40;;;;;;5052854;28;20383;-79
2021/03/19 04:32:52;;;;;;;8.65;2.70;;;21.40;67.40;;;;;;5047706;28;20060;-81
2021/03/19 04:35:20;;;;;;;7.05;2.17;;;21.40;67.30;;;;;;5051201;28;20117;-82
2021/03/19 04:37:50;;;;;;;6.03;2.13;;;21.40;67.10;;;;;;5036161;28;20048;-78
2021/03/19 04:40:45;;;;;;;9.27;2.83;;;21.40;67.10;;;;;;5035384;28;20111;-73
2021/03/19 04:43:28;;;;;;;16.58;8.82;;;21.30;67.00;;;;;;5035937;28;20123;-87
2021/03/19 04:46:00;;;;;;;12.18;6.57;;;21.30;66.90;;;;;;5033422;28;20036;-80
2021/03/19 04:48:55;;;;;;;11.18;6.10;;;21.30;66.70;;;;;;5034367;28;20033;-74
2021/03/19 04:51:22;;;;;;;8.48;4.47;;;21.30;66.70;;;;;;5047527;28;20072;-83
2021/03/19 04:54:09;;;;;;;7.85;3.67;;;21.30;66.40;;;;;;5051251;28;20039;-77
2021/03/19 04:56:35;;;;;;;8.20;2.42;;;21.20;66.10;;;;;;5051162;28;20024;-91
2021/03/19 04:59:03;;;;;;;12.75;2.80;;;21.20;66.10;;;;;;5053632;28;20033;-90
2021/03/19 05:01:49;;;;;;;6.78;1.75;;;21.20;66.00;;;;;;5051625;28;20375;-87
2021/03/19 05:04:57;;;;;;;7.30;2.50;;;21.20;65.90;;;;;;5049486;28;20017;-91
2021/03/19 05:07:23;;;;;;;6.72;2.70;;;21.20;66.40;;;;;;5053666;28;20385;-87
2021/03/19 05:09:50;;;;;;;7.65;2.97;;;21.20;65.50;;;;;;5061121;28;20092;-91
2021/03/19 05:12:17;;;;;;;8.02;2.05;;;21.20;65.30;;;;;;5051397;28;20025;-90
2021/03/19 05:14:43;;;;;;;4.90;1.75;;;21.20;65.20;;;;;;5050425;28;20032;-87
2021/03/19 05:17:10;;;;;;;7.13;1.35;;;21.20;64.90;;;;;;5046570;28;20426;-80
2021/03/19 05:19:36;;;;;;;8.90;2.08;;;21.20;64.90;;;;;;5050375;28;20477;-92
2021/03/19 05:22:03;;;;;;;7.70;1.92;;;21.20;64.80;;;;;;5052093;28;20024;-80
2021/03/19 05:24:30;;;;;;;10.95;3.38;;;21.20;64.80;;;;;;5051710;28;20071;-86
2021/03/19 05:26:56;;;;;;;7.40;1.73;;;21.20;64.90;;;;;;5050062;28;20024;-82
2021/03/19 05:29:23;;;;;;;7.20;2.08;;;21.20;65.00;;;;;;5050779;28;20089;-89
2021/03/19 05:31:49;;;;;;;7.70;1.92;;;21.20;65.00;;;;;;5048645;28;20539;-88
2021/03/19 05:34:16;;;;;;;9.18;2.30;;;21.10;64.90;;;;;;5049323;28;20052;-83
2021/03/19 05:36:42;;;;;;;9.52;2.33;;;21.10;64.90;;;;;;5053088;28;20033;-72
2021/03/19 05:39:11;;;;;;;4.85;1.52;;;21.20;65.00;;;;;;5049000;28;20575;-75
2021/03/19 05:41:40;;;;;;;7.28;3.03;;;21.10;65.00;;;;;;5047982;28;20032;-74
2021/03/19 05:44:12;;;;;;;11.15;1.80;;;21.10;65.00;;;;;;5051500;28;20028;-72
2021/03/19 05:46:45;;;;;;;7.40;1.98;;;21.10;64.70;;;;;;5049168;28;20142;-75
2021/03/19 05:49:51;;;;;;;6.55;2.92;;;21.10;64.50;;;;;;5047614;28;20369;-72
2021/03/19 05:53:00;;;;;;;8.52;1.92;;;21.10;64.40;;;;;;5051930;28;20479;-71
2021/03/19 05:56:06;;;;;;;6.85;1.60;;;21.10;64.10;;;;;;5049449;28;20033;-73
2021/03/19 05:59:12;;;;;;;11.52;3.75;;;21.10;64.10;;;;;;5044211;28;20036;-85
2021/03/19 06:02:18;;;;;;;7.90;2.65;;;21.10;64.10;;;;;;5057339;28;20063;-79
2021/03/19 06:05:24;;;;;;;10.63;2.80;;;21.10;64.10;;;;;;5056155;28;20093;-90
2021/03/19 06:08:45;;;;;;;12.00;2.05;;;21.10;64.20;;;;;;5042534;28;20576;-93
2021/03/19 06:11:51;;;;;;;7.03;2.05;;;21.10;64.30;;;;;;5055412;28;20029;-90
2021/03/19 06:15:00;;;;;;;13.13;1.98;;;21.20;64.40;;;;;;5050225;28;20020;-72
2021/03/19 06:18:09;;;;;;;11.00;2.45;;;21.20;64.50;;;;;;5050748;28;20021;-91
2021/03/19 06:21:30;;;;;;;7.32;2.40;;;21.10;64.30;;;;;;5050121;28;20049;-91
2021/03/19 06:24:44;;;;;;;10.77;2.00;;;21.20;64.30;;;;;;5049490;28;20028;-86
2021/03/19 06:28:00;;;;;;;6.00;1.70;;;21.20;63.90;;;;;;5051562;28;20068;-83
2021/03/19 06:31:06;;;;;;;9.32;1.80;;;21.20;63.80;;;;;;5055992;28;20475;-86
2021/03/19 06:34:10;;;;;;;9.95;2.58;;;21.20;63.50;;;;;;5047500;28;20021;-92
2021/03/19 06:36:55;;;;;;;9.77;3.85;;;21.20;63.60;;;;;;5053598;28;20024;-87
2021/03/19 06:40:14;;;;;;;8.18;2.08;;;21.20;62.90;;;;;;5052954;28;20430;-80
2021/03/19 06:43:17;;;;;;;6.55;1.63;;;21.20;63.10;;;;;;5054282;28;20477;-93
2021/03/19 06:46:26;;;;;;;6.10;1.60;;;21.20;62.20;;;;;;5049982;28;20060;-82
2021/03/19 06:48:55;;;;;;;7.82;1.77;;;21.30;62.40;;;;;;5039445;28;20036;-92
2021/03/19 06:52:04;;;;;;;4.50;1.73;;;21.30;61.90;;;;;;5032889;28;20036;-91
2021/03/19 06:55:20;;;;;;;8.50;2.00;;;21.30;61.40;;;;;;5048254;28;20009;-92
2021/03/19 06:58:26;;;;;;;7.13;1.50;;;21.30;61.00;;;;;;5041361;28;20049;-90
2021/03/19 07:01:24;;;;;;;6.43;1.50;;;21.40;60.80;;;;;;5049723;28;20025;-89
2021/03/19 07:04:22;;;;;;;10.00;1.95;;;21.40;60.60;;;;;;5052778;28;20024;-88
2021/03/19 07:07:30;;;;;;;7.65;2.08;;;21.40;60.30;;;;;;5050798;28;20071;-89
2021/03/19 07:10:41;;;;;;;6.82;2.15;;;21.40;60.00;;;;;;5055096;28;20028;-87
2021/03/19 07:13:23;;;;;;;6.85;2.08;;;21.50;60.20;;;;;;5052155;28;20032;-87
2021/03/19 07:16:10;;;;;;;11.15;2.42;;;21.50;60.30;;;;;;5053469;28;20092;-87
2021/03/19 07:19:08;;;;;;;4.85;1.65;;;21.50;60.30;;;;;;5054936;28;20029;-84
2021/03/19 07:21:38;;;;;;;3.92;1.42;;;21.60;60.30;;;;;;5048624;28;20041;-92
2021/03/19 07:24:53;;;;;;;9.23;1.75;;;21.60;60.10;;;;;;5062401;28;20013;-85
2021/03/19 07:27:35;;;;;;;6.60;1.67;;;21.60;60.00;;;;;;5054070;28;20090;-83
2021/03/19 07:30:04;;;;;;;13.40;1.67;;;21.70;60.00;;;;;;5036354;28;20375;-93
2021/03/19 07:32:40;;;;;;;6.13;1.80;;;21.70;59.80;;;;;;5054329;28;20567;-87
2021/03/19 07:35:37;;;;;;;5.70;2.17;;;21.70;59.60;;;;;;5059695;28;20025;-91
2021/03/19 07:38:52;;;;;;;6.43;1.38;;;21.80;59.50;;;;;;5058078;28;20060;-87
2021/03/19 07:41:51;;;;;;;5.25;1.40;;;21.80;59.30;;;;;;5042444;28;20108;-87
2021/03/19 07:44:40;;;;;;;7.90;1.77;;;21.90;59.10;;;;;;5054684;28;20037;-90
2021/03/19 07:47:25;;;;;;;5.80;2.05;;;21.90;58.90;;;;;;5052054;28;20036;-83
2021/03/19 07:50:24;;;;;;;2.88;1.35;;;21.90;58.80;;;;;;5056042;28;20465;-88
2021/03/19 07:53:27;;;;;;;5.68;1.83;;;22.00;58.90;;;;;;5048098;28;20021;-92
2021/03/19 07:56:23;;;;;;;6.95;2.40;;;22.00;58.60;;;;;;5043789;28;20025;-91
2021/03/19 07:59:04;;;;;;;6.47;1.55;;;22.00;58.40;;;;;;5043644;28;20044;-83
2021/03/19 08:01:49;;;;;;;13.10;1.98;;;22.10;58.20;;;;;;5052885;28;20394;-85
2021/03/19 08:04:35;;;;;;;4.57;1.80;;;22.10;57.80;;;;;;5050632;28;20019;-92
2021/03/19 08:07:37;;;;;;;7.95;2.13;;;22.10;57.70;;;;;;5057538;28;20013;-92
2021/03/19 08:10:26;;;;;;;6.13;1.30;;;22.10;57.60;;;;;;5064304;28;20028;-91
2021/03/19 08:12:56;;;;;;;3.92;1.05;;;22.10;57.60;;;;;;5051497;28;20025;-75
2021/03/19 08:16:11;;;;;;;7.88;2.38;;;22.20;57.60;;;;;;5054319;28;20029;-88
2021/03/19 08:19:04;;;;;;;6.03;1.80;;;22.20;57.70;;;;;;5050029;28;20037;-92
2021/03/19 08:21:49;;;;;;;7.78;1.40;;;22.20;57.80;;;;;;5049800;28;20037;-93
2021/03/19 08:25:07;;;;;;;6.15;1.75;;;22.30;57.90;;;;;;5054213;28;20025;-89
2021/03/19 08:28:21;;;;;;;7.38;1.70;;;22.30;58.00;;;;;;5043721;28;20039;-88
2021/03/19 08:31:06;;;;;;;6.38;1.85;;;22.40;58.00;;;;;;5052670;28;20029;-92
2021/03/19 08:33:50;;;;;;;11.43;2.45;;;22.40;57.90;;;;;;5055273;28;20013;-93
2021/03/19 08:36:46;;;;;;;8.88;2.15;;;22.50;57.90;;;;;;5049765;28;20583;-90
2021/03/19 08:40:01;;;;;;;5.88;2.00;;;22.50;57.80;;;;;;5046781;28;20037;-92
2021/03/19 08:43:13;;;;;;;7.13;1.55;;;22.60;57.90;;;;;;5046938;28;20025;-94
2021/03/19 08:46:11;;;;;;;4.28;1.48;;;22.60;57.60;;;;;;5037297;28;20087;-90
2021/03/19 08:49:36;;;;;;;5.65;1.75;;;22.60;57.40;;;;;;5054819;28;20032;-78
2021/03/19 08:52:28;;;;;;;6.80;1.80;;;22.70;57.40;;;;;;5049010;28;20071;-80
2021/03/19 08:55:49;;;;;;;6.80;1.30;;;22.70;57.10;;;;;;5047984;28;20029;-74
2021/03/19 08:58:51;;;;;;;5.95;1.60;;;22.80;56.90;;;;;;4987963;28;20041;-88
2021/03/19 09:01:45;;;;;;;6.70;1.40;;;22.90;57.30;;;;;;5047058;28;20025;-75
2021/03/19 09:04:52;;;;;;;9.23;2.25;;;22.90;56.90;;;;;;5049958;28;20017;-85
2021/03/19 09:07:51;;;;;;;5.78;1.98;;;23.00;57.20;;;;;;5049990;28;20045;-77
2021/03/19 09:10:18;;;;;;;5.15;1.95;;;23.00;56.60;;;;;;5054284;28;20024;-87
2021/03/19 09:12:57;;;;;;;3.63;1.17;;;23.10;56.70;;;;;;5051178;28;20460;-83
2021/03/19 09:15:23;;;;;;;6.03;1.60;;;23.10;57.30;;;;;;5055525;28;20024;-79
2021/03/19 09:18:38;;;;;;;7.72;2.35;;;23.10;56.70;;;;;;5045510;28;20033;-84
2021/03/19 09:21:30;;;;;;;6.20;1.58;;;23.20;56.60;;;;;;5020815;28;20592;-84
2021/03/19 09:24:36;;;;;;;6.55;1.40;;;23.20;56.20;;;;;;5032181;28;20039;-82
2021/03/19 09:27:48;;;;;;;7.03;1.23;;;23.30;56.20;;;;;;5027465;28;20029;-88
2021/03/19 09:30:20;;;;;;;7.57;1.35;;;23.30;55.90;;;;;;5031311;28;20431;-87
2021/03/19 09:33:26;;;;;;;8.52;1.30;;;23.40;56.10;;;;;;5031856;28;20021;-86
2021/03/19 09:36:31;;;;;;;5.63;1.85;;;23.40;55.90;;;;;;5029681;28;20468;-84
2021/03/19 09:39:35;;;;;;;6.00;1.35;;;23.50;55.90;;;;;;5033158;28;20048;-72
2021/03/19 09:42:21;;;;;;;6.05;1.85;;;23.50;56.20;;;;;;5033619;28;20017;-75
2021/03/19 09:45:08;;;;;;;5.72;1.55;;;23.60;55.70;;;;;;5033791;28;20068;-84
2021/03/19 09:48:35;;;;;;;8.23;1.40;;;23.60;55.60;;;;;;5030172;28;20096;-80
2021/03/19 09:51:47;;;;;;;8.23;2.20;;;23.60;55.50;;;;;;5032577;28;20037;-81
2021/03/19 09:55:05;;;;;;;13.82;2.42;;;23.70;55.60;;;;;;5034350;28;20545;-76
2021/03/19 09:58:11;;;;;;;9.27;2.05;;;23.90;55.70;;;;;;5031813;28;20108;-80
2021/03/19 10:01:20;;;;;;;6.28;1.60;;;23.90;55.10;;;;;;5034430;28;20045;-83
2021/03/19 10:04:29;;;;;;;5.32;1.45;;;24.00;55.10;;;;;;5033433;28;20557;-74
2021/03/19 10:07:35;;;;;;;6.57;2.50;;;24.00;55.10;;;;;;5036686;28;20069;-77
2021/03/19 10:10:21;;;;;;;;;;;24.00;54.70;;;;;;5029196;28;20021;-77
2021/03/19 10:13:39;;;;;;;7.13;1.35;;;24.10;54.80;;;;;;5029543;28;19939;-75
2021/03/19 10:16:45;;;;;;;6.40;2.25;;;24.20;54.70;;;;;;5030394;28;20028;-79
2021/03/19 10:19:54;;;;;;;4.68;1.73;;;24.20;54.30;;;;;;5036195;28;20055;-74
2021/03/19 10:23:06;;;;;;;7.75;1.77;;;24.30;54.50;;;;;;5050393;28;20037;-83
2021/03/19 10:26:12;;;;;;;4.38;1.45;;;24.30;54.60;;;;;;5050742;28;20059;-74
2021/03/19 10:29:01;;;;;;;4.55;1.25;;;24.40;54.60;;;;;;5047797;28;20448;-78
2021/03/19 10:32:10;;;;;;;8.00;2.80;;;24.40;53.90;;;;;;5048172;28;20111;-81
2021/03/19 10:34:37;;;;;;;5.13;2.15;;;24.50;53.80;;;;;;5050384;28;20048;-80
2021/03/19 10:37:30;;;;;;;4.38;1.92;;;24.60;54.00;;;;;;5052065;28;20036;-82
2021/03/19 10:40:37;;;;;;;5.38;1.50;;;24.60;53.80;;;;;;5052778;28;20137;-73
2021/03/19 10:43:44;;;;;;;7.75;1.65;;;24.70;54.00;;;;;;5053469;28;20045;-78
2021/03/19 10:46:56;;;;;;;9.38;1.58;;;24.70;53.60;;;;;;5053444;28;20017;-72
2021/03/19 10:50:17;;;;;;;7.95;1.30;;;24.80;53.00;;;;;;5051809;28;20064;-73
2021/03/19 10:53:23;;;;;;;3.88;1.35;;;24.90;54.10;;;;;;5049075;28;20083;-72
2021/03/19 10:56:09;;;;;;;;;;;25.00;53.80;;;;;;5053920;28;20036;-74
2021/03/19 10:58:58;;;;;;;2.50;0.98;;;25.00;52.90;;;;;;5050214;28;19969;-73
2021/03/19 11:01:33;;;;;;;7.82;2.45;;;25.00;53.20;;;;;;5058369;28;20740;-72
2021/03/19 11:04:54;;;;;;;8.32;2.20;;;25.10;53.20;;;;;;5054513;28;20523;-75
2021/03/19 11:07:27;;;;;;;6.60;1.60;;;25.20;53.00;;;;;;5048729;28;20033;-72
2021/03/19 11:10:27;;;;;;;7.50;1.60;;;25.20;52.40;;;;;;5051853;28;20025;-73
2021/03/19 11:13:14;;;;;;;4.47;1.58;;;25.20;52.70;;;;;;5050093;28;20057;-73
2021/03/19 11:16:20;;;;;;;6.55;2.95;;;25.30;52.80;;;;;;5049614;28;20037;-72
2021/03/19 11:19:05;;;;;;;;;;;25.20;52.60;;;;;;5047786;28;20442;-72
2021/03/19 11:22:23;;;;;;;8.02;2.33;;;25.30;52.70;;;;;;5051517;28;20472;-72
2021/03/19 11:25:42;;;;;;;4.80;1.55;;;25.30;52.50;;;;;;5051897;28;20017;-72
2021/03/19 11:28:34;;;;;;;6.57;1.50;;;25.40;52.70;;;;;;5051597;28;20609;-72
2021/03/19 11:31:39;;;;;;;9.45;1.60;;;25.40;52.70;;;;;;5049772;28;20029;-73
2021/03/19 11:34:14;;;;;;;6.75;2.75;;;25.50;52.40;;;;;;5050697;28;20029;-72
2021/03/19 11:37:18;;;;;;;3.83;1.45;;;25.50;51.60;;;;;;5049052;28;20032;-71
2021/03/19 11:40:11;;;;;;;5.35;1.23;;;25.50;51.90;;;;;;5053658;28;20040;-72
2021/03/19 11:43:32;;;;;;;2.38;1.13;;;25.50;51.90;;;;;;5051157;28;20036;-73
2021/03/19 11:46:38;;;;;;;4.47;1.40;;;25.60;51.70;;;;;;5054881;28;20025;-72
2021/03/19 11:49:24;;;;;;;;;;;25.60;51.80;;;;;;5050641;28;20040;-73
2021/03/19 11:52:30;;;;;;;9.63;1.80;;;25.70;51.80;;;;;;5049791;28;19909;-72
2021/03/19 11:55:16;;;;;;;;;;;25.80;52.00;;;;;;5050500;28;20036;-72
2021/03/19 11:58:22;;;;;;;4.50;0.93;;;25.80;51.50;;;;;;5052388;28;19924;-72
2021/03/19 12:01:08;;;;;;;;;;;25.90;51.30;;;;;;5044567;28;20078;-72
2021/03/19 12:03:57;;;;;;;5.57;1.38;;;26.00;51.10;;;;;;5053464;28;19909;-72
2021/03/19 12:07:03;;;;;;;5.80;1.55;;;26.10;51.10;;;;;;5048301;28;20120;-73
2021/03/19 12:09:50;;;;;;;;;;;26.10;51.00;;;;;;5050979;28;20488;-72
2021/03/19 12:12:56;;;;;;;8.15;1.85;;;26.20;51.00;;;;;;5054234;28;19905;-73
2021/03/19 12:15:42;;;;;;;;;;;26.20;51.10;;;;;;5052166;28;20021;-72
2021/03/19 12:18:48;;;;;;;7.47;1.88;;;26.20;51.00;;;;;;5051693;28;19924;-73
2021/03/19 12:21:54;;;;;;;6.90;1.42;;;26.20;50.70;;;;;;5051075;28;20040;-72
2021/03/19 12:25:01;;;;;;;6.93;1.52;;;26.30;50.60;;;;;;5048520;28;20017;-72
2021/03/19 12:28:07;;;;;;;5.85;1.70;;;26.30;50.80;;;;;;5034649;28;20090;-72
2021/03/19 12:31:13;;;;;;;9.05;1.50;;;26.30;50.00;;;;;;5054362;28;20017;-74
2021/03/19 12:34:19;;;;;;;5.40;1.20;;;26.30;49.90;;;;;;5030140;28;20133;-73
2021/03/19 12:37:05;;;;;;;;;;;26.30;50.00;;;;;;5049732;28;20111;-73
2021/03/19 12:40:11;;;;;;;6.35;2.17;;;26.30;50.30;;;;;;5051555;28;19912;-74
2021/03/19 12:43:17;;;;;;;3.33;1.52;;;26.30;50.40;;;;;;5048753;28;20392;-72
2021/03/19 12:46:04;;;;;;;;;;;26.40;50.50;;;;;;5051314;28;20060;-73
2021/03/19 12:49:10;;;;;;;6.20;1.52;;;26.40;50.20;;;;;;5055345;28;19909;-73
2021/03/19 12:51:55;;;;;;;;;;;26.40;50.10;;;;;;5048450;28;20029;-72
2021/03/19 12:55:02;;;;;;;6.38;1.60;;;26.40;50.10;;;;;;5041756;28;19960;-72
2021/03/19 12:58:08;;;;;;;11.45;2.33;;;26.50;50.00;;;;;;5048646;28;20028;-73
2021/03/19 13:01:18;;;;;;;8.73;1.90;;;26.40;50.00;;;;;;5048082;28;20024;-73
2021/03/19 13:04:27;;;;;;;7.55;2.95;;;26.40;49.90;;;;;;5051809;28;20029;-72
2021/03/19 13:07:33;;;;;;;7.03;2.33;;;26.50;49.50;;;;;;5050688;28;20025;-81
2021/03/19 13:10:40;;;;;;;6.40;1.95;;;26.50;49.30;;;;;;5053249;28;20070;-73
2021/03/19 13:13:46;;;;;;;7.43;1.55;;;26.40;49.70;;;;;;5052351;28;20510;-77
2021/03/19 13:16:53;;;;;;;7.07;1.80;;;26.40;49.10;;;;;;5052152;28;20025;-74
2021/03/19 13:19:59;;;;;;;8.75;1.90;;;26.40;49.20;;;;;;5043000;28;20068;-92
2021/03/19 13:23:06;;;;;;;8.20;1.95;;;26.30;48.50;;;;;;5053524;28;20154;-77
2021/03/19 13:26:12;;;;;;;5.63;1.70;;;26.30;48.70;;;;;;5050516;28;20479;-86
2021/03/19 13:28:58;;;;;;;;;;;26.20;49.10;;;;;;5049788;28;20056;-84
2021/03/19 13:32:04;;;;;;;4.05;1.60;;;26.20;48.70;;;;;;5053018;28;19905;-84
2021/03/19 13:35:10;;;;;;;7.93;1.88;;;26.20;48.60;;;;;;5031800;28;20032;-78
2021/03/19 13:38:16;;;;;;;5.70;1.45;;;26.20;48.60;;;;;;5054029;28;20020;-74
2021/03/19 13:41:02;;;;;;;;;;;26.20;48.90;;;;;;5049252;28;20036;-75
2021/03/19 13:44:08;;;;;;;6.88;1.60;;;26.10;49.30;;;;;;5052783;28;19908;-77
2021/03/19 13:46:54;;;;;;;;;;;26.10;49.10;;;;;;5046130;28;20126;-87
2021/03/19 13:50:00;;;;;;;6.85;2.17;;;26.20;48.80;;;;;;5046677;28;19916;-78
2021/03/19 13:53:07;;;;;;;6.57;1.45;;;26.10;48.90;;;;;;5048151;28;20028;-84
2021/03/19 13:56:13;;;;;;;4.15;1.95;;;26.00;49.20;;;;;;5047360;28;20491;-74
2021/03/19 13:59:22;;;;;;;5.57;2.15;;;26.00;48.90;;;;;;5030357;28;20445;-75
2021/03/19 14:02:28;;;;;;;7.68;1.67;;;25.90;48.90;;;;;;5049986;28;20431;-82
2021/03/19 14:05:36;;;;;;;9.02;1.83;;;25.90;48.90;;;;;;5047848;28;20036;-72
2021/03/19 14:08:42;;;;;;;6.30;1.40;;;25.90;48.90;;;;;;5051560;28;20152;-74
2021/03/19 14:11:48;;;;;;;5.93;1.40;;;25.80;49.10;;;;;;5030097;28;20024;-82
2021/03/19 14:14:55;;;;;;;6.13;1.92;;;25.90;49.10;;;;;;5049577;28;20069;-78
2021/03/19 14:18:01;;;;;;;7.75;2.05;;;25.80;48.80;;;;;;5030919;28;20028;-75
2021/03/19 14:20:50;;;;;;;;;;;25.90;49.60;;;;;;5046467;28;20095;-75
2021/03/19 14:23:56;;;;;;;5.20;2.00;;;25.90;49.80;;;;;;5053072;28;19913;-76
2021/03/19 14:26:42;;;;;;;;;;;25.90;49.30;;;;;;5054371;28;20533;-77
2021/03/19 14:29:48;;;;;;;6.28;2.63;;;25.90;49.50;;;;;;5048269;28;19947;-77
2021/03/19 14:32:54;;;;;;;5.43;1.90;;;25.90;49.80;;;;;;5031283;28;20029;-79
2021/03/19 14:36:00;;;;;;;13.20;1.77;;;26.00;49.50;;;;;;5054023;28;20103;-82
2021/03/19 14:39:06;;;;;;;8.65;5.45;;;26.00;49.50;;;;;;5047942;28;20033;-75
2021/03/19 14:41:52;;;;;;;;;;;26.00;49.50;;;;;;5047612;28;20020;-79
2021/03/19 14:44:59;;;;;;;10.25;3.80;;;26.00;49.70;;;;;;5050765;28;19909;-77
2021/03/19 14:48:05;;;;;;;6.10;2.97;;;26.00;49.40;;;;;;5040949;28;20021;-77
2021/03/19 14:51:11;;;;;;;7.15;2.75;;;26.00;49.70;;;;;;5031262;28;20021;-76
2021/03/19 14:54:17;;;;;;;9.48;2.60;;;26.00;49.70;;;;;;5033723;28;20373;-74
2021/03/19 14:57:04;;;;;;;9.40;2.90;;;26.00;50.10;;;;;;5053627;28;20032;-74
2021/03/19 14:59:30;;;;;;;21.67;14.88;;;25.90;50.10;;;;;;5052240;28;20459;-76
2021/03/19 15:01:57;;;;;;;13.15;6.63;;;25.80;49.70;;;;;;5052736;28;20075;-75
2021/03/19 15:04:23;;;;;;;11.27;4.15;;;25.70;50.00;;;;;;5050532;28;20036;-77
2021/03/19 15:06:50;;;;;;;8.93;3.05;;;25.70;50.10;;;;;;5049990;28;20029;-77
2021/03/19 15:09:16;;;;;;;10.32;2.78;;;25.70;50.40;;;;;;5048354;28;20017;-77
2021/03/19 15:11:43;;;;;;;11.38;2.97;;;25.60;50.60;;;;;;5046458;28;20025;-79
2021/03/19 15:14:09;;;;;;;5.30;2.53;;;25.60;50.70;;;;;;5050155;28;20017;-75
2021/03/19 15:16:36;;;;;;;9.65;2.00;;;25.60;51.10;;;;;;5052773;28;20065;-75
2021/03/19 15:19:04;;;;;;;10.52;2.50;;;25.50;50.80;;;;;;5048595;28;20053;-78
2021/03/19 15:21:30;;;;;;;5.63;2.35;;;25.60;50.90;;;;;;5042589;28;20021;-79
2021/03/19 15:23:57;;;;;;;17.45;12.50;;;25.50;51.20;;;;;;5052309;28;20078;-76
2021/03/19 15:26:27;;;;;;;10.30;3.17;;;25.40;51.40;;;;;;5055188;28;20573;-76
2021/03/19 15:28:54;;;;;;;6.90;3.67;;;25.40;51.70;;;;;;5054585;28;20468;-75
2021/03/19 15:31:21;;;;;;;5.20;2.35;;;25.40;51.60;;;;;;5053199;28;20415;-75
2021/03/19 15:33:49;;;;;;;9.95;2.38;;;25.40;51.50;;;;;;5054566;28;20431;-75
2021/03/19 15:36:17;;;;;;;10.65;2.60;;;25.30;51.00;;;;;;5051884;28;20036;-76
2021/03/19 15:38:44;;;;;;;6.18;1.75;;;25.30;51.40;;;;;;5051645;28;20127;-77
2021/03/19 15:41:11;;;;;;;11.95;2.78;;;25.20;51.60;;;;;;5053297;28;20082;-75
2021/03/19 15:43:38;;;;;;;7.85;2.22;;;25.20;51.70;;;;;;5053299;28;20017;-77
2021/03/19 15:46:07;;;;;;;10.88;3.13;;;25.10;51.70;;;;;;5049699;28;20029;-77
2021/03/19 15:49:14;;;;;;;11.18;2.42;;;25.10;51.90;;;;;;5051067;28;20111;-76
2021/03/19 15:52:20;;;;;;;9.15;2.67;;;25.00;52.20;;;;;;5035760;28;20013;-78
2021/03/19 15:55:27;;;;;;;12.75;8.00;;;25.00;52.40;;;;;;5053195;28;20025;-79
2021/03/19 15:58:34;;;;;;;18.08;11.48;;;24.90;52.40;;;;;;5035428;28;20132;-77
2021/03/19 16:01:40;;;;;;;11.10;7.57;;;24.80;52.70;;;;;;5046933;28;20029;-77
2021/03/19 16:04:26;;;;;;;;;;;24.80;52.80;;;;;;5048131;28;20032;-74
2021/03/19 16:07:32;;;;;;;9.38;4.57;;;24.80;53.00;;;;;;5049735;28;19970;-78
2021/03/19 16:10:18;;;;;;;;;;;24.80;53.10;;;;;;5049832;28;20018;-76
2021/03/19 16:13:24;;;;;;;6.47;2.78;;;24.80;53.30;;;;;;5050304;28;19913;-75
2021/03/19 16:16:30;;;;;;;8.98;2.80;;;24.70;53.30;;;;;;5050603;28;20040;-71
2021/03/19 16:19:37;;;;;;;6.53;2.38;;;24.80;53.60;;;;;;5046113;28;20480;-76
2021/03/19 16:22:03;;;;;;;7.50;2.00;;;24.70;53.80;;;;;;5047441;28;20063;-76
2021/03/19 16:24:32;;;;;;;9.02;3.10;;;24.70;54.00;;;;;;5047329;28;20103;-77
2021/03/19 16:26:58;;;;;;;10.20;2.92;;;24.70;54.10;;;;;;5038642;28;20036;-79
2021/03/19 16:29:25;;;;;;;8.77;2.67;;;24.70;54.30;;;;;;5045153;28;20029;-76
2021/03/19 16:31:51;;;;;;;10.38;3.13;;;24.60;54.40;;;;;;5046880;28;20495;-79
2021/03/19 16:34:19;;;;;;;15.00;5.57;;;24.60;54.60;;;;;;5045008;28;20480;-74
2021/03/19 16:36:45;;;;;;;21.33;11.65;;;24.60;54.70;;;;;;5046139;28;20074;-75
2021/03/19 16:39:12;;;;;;;12.68;5.75;;;24.60;54.80;;;;;;5043227;28;20092;-75
2021/03/19 16:41:39;;;;;;;12.65;6.55;;;24.60;54.90;;;;;;5047750;28;20099;-74
2021/03/19 16:44:07;;;;;;;12.52;5.45;;;24.60;55.10;;;;;;5049047;28;20025;-76
2021/03/19 16:46:34;;;;;;;12.18;5.22;;;24.50;55.10;;;;;;5045262;28;20047;-76
2021/03/19 16:49:02;;;;;;;11.18;3.65;;;24.50;55.20;;;;;;5047251;28;20104;-79
2021/03/19 16:51:31;;;;;;;8.82;2.72;;;24.40;55.30;;;;;;5047498;28;20988;-77
2021/03/19 16:53:58;;;;;;;11.88;2.72;;;24.40;55.40;;;;;;5049187;28;20104;-76
2021/03/19 16:56:25;;;;;;;7.40;3.30;;;24.40;55.40;;;;;;5048975;28;20044;-75
2021/03/19 16:58:51;;;;;;;10.02;4.50;;;24.40;55.20;;;;;;5050020;28;20029;-74
2021/03/19 17:01:22;;;;;;;13.50;9.02;;;24.40;55.10;;;;;;5043933;28;20480;-74
2021/03/19 17:03:49;;;;;;;15.98;9.45;;;24.40;55.20;;;;;;5032838;28;20028;-75
2021/03/19 17:06:17;;;;;;;15.05;8.05;;;24.40;55.20;;;;;;5047065;28;20021;-75
2021/03/19 17:08:45;;;;;;;8.70;5.38;;;24.30;55.20;;;;;;5048920;28;20079;-75